createdAt,value
2023-08-17T00:02:25.128Z,9.30
2023-08-17T00:07:30.957Z,10.00
2023-08-17T00:10:05.941Z,9.27
2023-08-17T00:12:38.917Z,12.77
2023-08-17T00:15:12.272Z,11.23
2023-08-17T00:17:45.161Z,11.23
2023-08-17T00:22:50.954Z,12.45
2023-08-17T00:27:57.928Z,11.52
2023-08-17T00:30:31.037Z,13.90
2023-08-17T00:35:36.712Z,12.40
2023-08-17T00:40:43.765Z,10.50
2023-08-17T00:43:16.714Z,12.38
2023-08-17T00:45:49.893Z,12.35
2023-08-17T00:48:22.848Z,17.00
2023-08-17T00:53:31.576Z,12.82
2023-08-17T00:56:08.012Z,12.50
2023-08-17T00:58:41.243Z,11.13
2023-08-17T01:01:15.192Z,14.05
2023-08-17T01:03:48.191Z,13.95
2023-08-17T01:06:23.248Z,14.07
2023-08-17T01:08:57.010Z,13.27
2023-08-17T01:11:38.574Z,12.15
2023-08-17T01:14:21.994Z,15.45
2023-08-17T01:17:02.688Z,12.13
2023-08-17T01:19:36.033Z,13.75
2023-08-17T01:22:10.946Z,11.43
2023-08-17T01:24:45.158Z,12.52
2023-08-17T01:27:18.266Z,12.93
2023-08-17T01:29:51.261Z,12.88
2023-08-17T01:35:14.034Z,15.95
2023-08-17T01:37:47.426Z,17.15
2023-08-17T01:40:23.959Z,13.00
2023-08-17T01:42:57.679Z,16.13
2023-08-17T01:45:30.743Z,15.30
2023-08-17T01:48:03.785Z,13.43
2023-08-17T01:50:37.571Z,17.42
2023-08-17T01:55:45.283Z,16.77
2023-08-17T01:58:18.200Z,15.05
2023-08-17T02:03:23.977Z,21.10
2023-08-17T02:08:31.471Z,15.77
2023-08-17T02:11:05.752Z,17.65
2023-08-17T02:13:38.705Z,16.63
2023-08-17T02:18:44.410Z,15.67
2023-08-17T02:23:50.206Z,14.57
2023-08-17T02:28:57.157Z,15.77
2023-08-17T02:31:31.120Z,14.98
2023-08-17T02:34:06.482Z,17.75
2023-08-17T02:36:39.672Z,15.60
2023-08-17T02:41:50.075Z,18.10
2023-08-17T02:44:23.002Z,15.40
2023-08-17T02:46:56.001Z,18.08
2023-08-17T02:52:03.347Z,20.55
2023-08-17T02:57:10.560Z,18.80
2023-08-17T02:59:43.564Z,17.52
2023-08-17T03:04:49.198Z,16.60
2023-08-17T03:07:22.075Z,16.95
2023-08-17T03:09:54.963Z,15.43
2023-08-17T03:12:29.244Z,17.75
2023-08-17T03:15:02.366Z,17.33
2023-08-17T03:17:35.968Z,14.52
2023-08-17T03:20:10.590Z,12.95
2023-08-17T03:22:43.469Z,13.07
2023-08-17T03:25:16.439Z,14.98
2023-08-17T03:27:51.161Z,12.27
2023-08-17T03:30:24.081Z,14.05
2023-08-17T03:32:57.455Z,17.50
2023-08-17T03:35:30.374Z,14.65
2023-08-17T03:38:03.359Z,13.57
2023-08-17T03:43:10.535Z,12.30
2023-08-17T03:45:44.243Z,13.00
2023-08-17T03:48:17.230Z,14.40
2023-08-17T03:50:53.418Z,12.98
2023-08-17T03:53:26.384Z,12.60
2023-08-17T03:58:35.916Z,13.90
2023-08-17T04:01:09.135Z,14.45
2023-08-17T04:06:15.386Z,13.85
2023-08-17T04:08:49.342Z,14.25
2023-08-17T04:13:56.644Z,16.15
2023-08-17T04:16:29.598Z,15.65
2023-08-17T04:21:36.132Z,13.68
2023-08-17T04:24:09.534Z,23.55
2023-08-17T04:26:42.481Z,14.27
2023-08-17T04:29:16.882Z,16.80
2023-08-17T04:31:50.390Z,22.85
2023-08-17T04:34:23.565Z,15.48
2023-08-17T04:36:56.448Z,15.82
2023-08-17T04:39:29.446Z,12.68
2023-08-17T04:42:04.806Z,13.25
2023-08-17T04:44:41.566Z,12.75
2023-08-17T04:47:14.479Z,16.17
2023-08-17T04:49:48.622Z,14.88
2023-08-17T04:52:21.491Z,13.90
2023-08-17T04:54:54.426Z,20.50
2023-08-17T04:57:28.157Z,15.85
2023-08-17T05:00:04.920Z,19.88
2023-08-17T05:02:38.117Z,17.25
2023-08-17T05:05:12.474Z,16.98
2023-08-17T05:07:46.952Z,11.80
2023-08-17T05:10:20.797Z,17.05
2023-08-17T05:12:54.481Z,14.60
2023-08-17T05:15:28.809Z,11.57
2023-08-17T05:18:02.936Z,12.43
2023-08-17T05:20:36.076Z,12.25
2023-08-17T05:25:41.946Z,12.40
2023-08-17T05:28:14.843Z,18.48
2023-08-17T05:30:49.243Z,14.60
2023-08-17T05:33:22.289Z,13.00
2023-08-17T05:35:56.253Z,17.75
2023-08-17T05:38:29.245Z,15.20
2023-08-17T05:41:03.097Z,12.32
2023-08-17T05:43:36.077Z,11.93
2023-08-17T05:46:10.422Z,12.63
2023-08-17T05:48:43.408Z,13.57
2023-08-17T05:53:49.122Z,15.13
2023-08-17T05:56:22.075Z,16.52
2023-08-17T05:58:55.324Z,13.48
2023-08-17T06:01:29.632Z,11.73
2023-08-17T06:04:03.427Z,14.18
2023-08-17T06:06:37.542Z,18.33
2023-08-17T06:09:10.639Z,15.02
2023-08-17T06:11:49.635Z,14.90
2023-08-17T06:14:23.484Z,17.50
2023-08-17T06:16:58.137Z,13.38
2023-08-17T06:19:31.396Z,18.33
2023-08-17T06:22:04.674Z,14.25
2023-08-17T06:24:37.973Z,14.50
2023-08-17T06:27:11.260Z,13.30
2023-08-17T06:29:45.148Z,16.58
2023-08-17T06:32:19.725Z,15.98
2023-08-17T06:34:55.264Z,14.57
2023-08-17T06:37:28.833Z,15.57
2023-08-17T06:40:02.287Z,14.40
2023-08-17T06:42:35.642Z,15.70
2023-08-17T06:45:10.083Z,14.25
2023-08-17T06:47:44.782Z,14.07
2023-08-17T06:50:18.014Z,14.18
2023-08-17T06:52:51.283Z,13.75
2023-08-17T06:55:24.457Z,16.10
2023-08-17T06:57:57.725Z,19.90
2023-08-17T07:00:31.187Z,15.60
2023-08-17T07:03:06.680Z,16.45
2023-08-17T07:05:39.969Z,17.30
2023-08-17T07:08:14.571Z,13.68
2023-08-17T07:11:05.363Z,20.13
2023-08-17T07:13:41.544Z,13.68
2023-08-17T07:16:15.557Z,15.27
2023-08-17T07:18:53.204Z,15.48
2023-08-17T07:21:27.251Z,12.98
2023-08-17T07:24:00.644Z,12.85
2023-08-17T07:26:33.869Z,14.10
2023-08-17T07:29:07.184Z,12.38
2023-08-17T07:31:42.374Z,15.40
2023-08-17T07:34:18.614Z,14.32
2023-08-17T07:36:51.826Z,15.82
2023-08-17T07:39:25.249Z,13.90
2023-08-17T07:41:58.564Z,19.15
2023-08-17T07:44:32.671Z,15.60
2023-08-17T07:47:06.192Z,11.60
2023-08-17T07:49:40.956Z,17.48
2023-08-17T07:52:16.865Z,14.40
2023-08-17T07:54:50.134Z,15.02
2023-08-17T07:57:23.508Z,17.80
2023-08-17T07:59:56.780Z,12.48
2023-08-17T08:02:54.715Z,16.23
2023-08-17T08:05:30.196Z,20.77
2023-08-17T08:08:03.450Z,14.85
2023-08-17T08:10:36.759Z,16.98
2023-08-17T08:13:09.968Z,14.32
2023-08-17T08:15:43.215Z,13.20
2023-08-17T08:18:16.528Z,14.95
2023-08-17T08:20:51.385Z,14.57
2023-08-17T08:23:24.731Z,16.45
2023-08-17T08:25:59.334Z,15.20
2023-08-17T08:28:32.611Z,14.20
2023-08-17T08:31:06.259Z,13.40
2023-08-17T08:33:39.605Z,14.73
2023-08-17T08:36:14.239Z,13.43
2023-08-17T08:38:47.498Z,14.00
2023-08-17T08:41:22.346Z,15.20
2023-08-17T08:43:55.880Z,13.05
2023-08-17T08:46:33.940Z,16.17
2023-08-17T08:49:08.706Z,13.07
2023-08-17T08:51:46.648Z,15.05
2023-08-17T08:54:23.622Z,14.93
2023-08-17T08:57:01.703Z,14.18
2023-08-17T08:59:38.054Z,13.57
2023-08-17T09:02:13.649Z,14.70
2023-08-17T09:04:47.759Z,13.85
2023-08-17T09:07:24.823Z,13.15
2023-08-17T09:09:58.773Z,16.20
2023-08-17T09:12:39.489Z,16.50
2023-08-17T09:15:13.556Z,15.63
2023-08-17T09:17:48.954Z,14.15
2023-08-17T09:20:40.048Z,15.20
2023-08-17T09:23:15.666Z,15.13
2023-08-17T09:25:50.321Z,15.80
2023-08-17T09:28:23.381Z,15.70
2023-08-17T09:30:57.541Z,15.75
2023-08-17T09:33:32.863Z,16.90
2023-08-17T09:36:06.054Z,18.10
2023-08-17T09:38:40.504Z,14.75
2023-08-17T09:41:14.894Z,14.38
2023-08-17T09:43:48.382Z,14.50
2023-08-17T09:46:21.487Z,13.32
2023-08-17T09:48:55.905Z,15.30
2023-08-17T09:51:28.965Z,12.63
2023-08-17T09:54:05.141Z,16.67
2023-08-17T09:56:39.677Z,15.82
2023-08-17T09:59:12.589Z,14.57
2023-08-17T10:01:48.257Z,12.57
2023-08-17T10:04:24.241Z,13.45
2023-08-17T10:07:02.024Z,12.30
2023-08-17T10:09:41.209Z,10.90
2023-08-17T10:12:18.442Z,11.90
2023-08-17T10:14:54.115Z,10.15
2023-08-17T10:17:29.179Z,10.93
2023-08-17T10:20:03.737Z,10.02
2023-08-17T10:22:44.239Z,13.05
2023-08-17T10:25:19.128Z,10.70
2023-08-17T10:30:32.817Z,9.63
2023-08-17T10:33:07.220Z,8.07
2023-08-17T10:35:41.673Z,8.63
2023-08-17T10:38:14.922Z,9.95
2023-08-17T10:41:17.822Z,7.97
2023-08-17T10:43:58.714Z,8.45
2023-08-17T10:46:37.043Z,8.48
2023-08-17T10:49:26.937Z,9.30
2023-08-17T10:52:04.735Z,7.22
2023-08-17T10:54:41.261Z,9.10
2023-08-17T10:57:36.130Z,9.52
2023-08-17T11:00:25.406Z,6.95
2023-08-17T11:03:02.742Z,7.88
2023-08-17T11:05:44.752Z,12.38
2023-08-17T11:08:23.106Z,18.10
2023-08-17T11:11:06.009Z,5.93
2023-08-17T11:13:42.017Z,6.15
2023-08-17T11:16:18.730Z,7.70
2023-08-17T11:18:52.212Z,5.85
2023-08-17T11:21:25.391Z,7.15
2023-08-17T11:23:59.888Z,8.23
2023-08-17T11:26:35.352Z,6.32
2023-08-17T11:29:13.033Z,6.22
2023-08-17T11:31:51.132Z,6.03
2023-08-17T11:34:24.301Z,8.18
2023-08-17T11:36:59.884Z,7.15
2023-08-17T11:39:37.937Z,5.95
2023-08-17T11:42:13.559Z,6.25
2023-08-17T11:47:32.592Z,7.55
2023-08-17T11:50:19.966Z,6.50
2023-08-17T11:52:54.545Z,7.15
2023-08-17T11:55:27.801Z,9.82
2023-08-17T11:58:09.761Z,5.70
2023-08-17T12:00:46.652Z,6.10
2023-08-17T12:03:20.610Z,4.78
2023-08-17T12:05:53.665Z,6.32
2023-08-17T12:08:26.744Z,11.18
2023-08-17T12:10:59.931Z,7.57
2023-08-17T12:13:35.975Z,5.15
2023-08-17T12:16:17.259Z,4.72
2023-08-17T12:18:50.586Z,4.50
2023-08-17T12:21:24.548Z,5.20
2023-08-17T12:23:57.706Z,4.97
2023-08-17T12:26:31.075Z,3.92
2023-08-17T12:29:07.223Z,4.32
2023-08-17T12:31:41.687Z,5.22
2023-08-17T12:34:14.646Z,6.18
2023-08-17T12:36:47.736Z,4.60
2023-08-17T12:39:20.688Z,5.10
2023-08-17T12:41:53.561Z,6.47
2023-08-17T12:44:26.527Z,6.22
2023-08-17T12:47:01.034Z,7.03
2023-08-17T12:52:11.944Z,5.78
2023-08-17T12:54:45.027Z,5.05
2023-08-17T12:57:17.977Z,5.85
2023-08-17T12:59:50.878Z,5.47
2023-08-17T13:02:26.102Z,9.05
2023-08-17T13:04:59.454Z,5.93
2023-08-17T13:07:32.522Z,7.55
2023-08-17T13:10:06.024Z,6.40
2023-08-17T13:12:38.936Z,7.13
2023-08-17T13:15:12.083Z,6.60
2023-08-17T13:17:46.663Z,6.30
2023-08-17T13:20:19.632Z,6.55
2023-08-17T13:22:52.628Z,5.82
2023-08-17T13:25:25.610Z,5.95
2023-08-17T13:27:58.603Z,7.35
2023-08-17T13:30:31.522Z,9.10
2023-08-17T13:33:07.626Z,5.47
2023-08-17T13:35:41.016Z,5.45
2023-08-17T13:38:15.868Z,5.28
2023-08-17T13:40:51.360Z,6.13
2023-08-17T13:43:24.412Z,4.50
2023-08-17T13:45:57.331Z,7.00
2023-08-17T13:48:31.705Z,4.63
2023-08-17T13:51:04.729Z,7.25
2023-08-17T13:53:37.922Z,3.78
2023-08-17T13:56:13.529Z,5.10
2023-08-17T13:58:46.528Z,3.90
2023-08-17T14:01:19.831Z,5.38
2023-08-17T14:03:54.278Z,5.80
2023-08-17T14:06:27.288Z,4.03
2023-08-17T14:09:00.208Z,4.65
2023-08-17T14:11:33.394Z,4.57
2023-08-17T14:14:08.432Z,4.80
2023-08-17T14:16:41.625Z,4.63
2023-08-17T14:19:18.711Z,5.72
2023-08-17T14:21:52.302Z,4.40
2023-08-17T14:24:25.195Z,5.78
2023-08-17T14:26:59.306Z,3.38
2023-08-17T14:29:32.232Z,5.78
2023-08-17T14:32:05.587Z,4.90
2023-08-17T14:34:39.930Z,5.88
2023-08-17T14:37:12.838Z,5.05
2023-08-17T14:39:45.825Z,5.55
2023-08-17T14:42:18.749Z,5.93
2023-08-17T14:44:51.641Z,6.88
2023-08-17T14:47:24.951Z,5.15
2023-08-17T14:49:59.325Z,6.97
2023-08-17T14:52:34.468Z,5.20
2023-08-17T14:55:08.249Z,11.00
2023-08-17T14:57:41.083Z,10.15
2023-08-17T15:00:17.018Z,6.18
2023-08-17T15:02:50.840Z,6.97
2023-08-17T15:05:28.856Z,4.47
2023-08-17T15:08:02.157Z,6.13
2023-08-17T15:10:35.527Z,4.97
2023-08-17T15:13:11.397Z,4.88
2023-08-17T15:15:44.636Z,4.65
2023-08-17T15:18:17.662Z,3.85
2023-08-17T15:20:51.978Z,5.25
2023-08-17T15:23:24.850Z,5.30
2023-08-17T15:25:57.789Z,3.65
2023-08-17T15:28:32.932Z,6.97
2023-08-17T15:31:06.751Z,3.33
2023-08-17T15:33:39.724Z,3.53
2023-08-17T15:36:14.039Z,3.85
2023-08-17T15:38:46.906Z,3.72
2023-08-17T15:41:20.435Z,3.85
2023-08-17T15:43:53.381Z,6.85
2023-08-17T15:46:26.481Z,6.40
2023-08-17T15:48:59.660Z,5.30
2023-08-17T15:51:34.008Z,7.20
2023-08-17T15:54:07.205Z,5.20
2023-08-17T15:56:40.220Z,6.65
2023-08-17T15:59:13.364Z,6.55
2023-08-17T16:01:46.358Z,5.20
2023-08-17T16:04:19.386Z,7.32
2023-08-17T16:06:53.761Z,4.85
2023-08-17T16:09:30.764Z,5.55
2023-08-17T16:12:04.225Z,4.40
2023-08-17T16:14:37.176Z,7.30
2023-08-17T16:17:10.169Z,6.15
2023-08-17T16:19:43.121Z,5.75
2023-08-17T16:22:17.696Z,4.90
2023-08-17T16:24:50.611Z,8.13
2023-08-17T16:27:23.632Z,5.20
2023-08-17T16:29:56.602Z,5.53
2023-08-17T16:32:30.178Z,5.63
2023-08-17T16:35:03.192Z,6.40
2023-08-17T16:37:40.934Z,4.75
2023-08-17T16:40:27.702Z,5.97
2023-08-17T16:43:05.517Z,10.88
2023-08-17T16:45:40.646Z,7.25
2023-08-17T16:48:13.645Z,7.22
2023-08-17T16:50:46.762Z,8.05
2023-08-17T16:53:21.707Z,5.93
2023-08-17T16:55:55.777Z,5.10
2023-08-17T16:58:29.007Z,9.98
2023-08-17T17:01:03.956Z,6.07
2023-08-17T17:03:38.752Z,8.00
2023-08-17T17:06:14.778Z,11.05
2023-08-17T17:08:49.009Z,7.93
2023-08-17T17:11:22.000Z,8.13
2023-08-17T17:13:57.597Z,12.90
2023-08-17T17:16:31.600Z,11.63
2023-08-17T17:19:04.557Z,11.43
2023-08-17T17:21:37.420Z,8.60
2023-08-17T17:24:11.829Z,19.75
2023-08-17T17:26:44.664Z,8.82
2023-08-17T17:29:19.155Z,7.38
2023-08-17T17:31:52.998Z,6.22
2023-08-17T17:34:25.920Z,8.13
2023-08-17T17:36:58.774Z,9.68
2023-08-17T17:39:33.964Z,13.23
2023-08-17T17:42:07.227Z,11.35
2023-08-17T17:44:40.100Z,14.02
2023-08-17T17:49:45.772Z,35.65
2023-08-17T17:52:19.363Z,26.10
2023-08-17T17:54:53.582Z,23.48
2023-08-17T17:57:26.888Z,18.45
2023-08-17T18:00:00.433Z,16.90
2023-08-17T18:02:33.423Z,13.77
2023-08-17T18:05:08.104Z,17.35
2023-08-17T18:07:41.189Z,10.90
2023-08-17T18:10:15.726Z,7.13
2023-08-17T18:12:48.673Z,11.02
2023-08-17T18:17:54.498Z,9.48
2023-08-17T18:20:27.878Z,10.50
2023-08-17T18:23:02.013Z,7.35
2023-08-17T18:25:36.365Z,9.98
2023-08-17T18:28:09.547Z,15.90
2023-08-17T18:30:42.471Z,21.90
2023-08-17T18:35:48.180Z,12.43
2023-08-17T18:40:55.084Z,10.13
2023-08-17T18:43:27.997Z,10.23
2023-08-17T18:48:33.752Z,10.57
2023-08-17T18:51:06.755Z,17.60
2023-08-17T18:53:39.612Z,25.90
2023-08-17T18:58:46.552Z,11.07
2023-08-17T19:01:19.480Z,8.52
2023-08-17T19:03:52.650Z,8.77
2023-08-17T19:06:25.613Z,11.85
2023-08-17T19:11:32.637Z,19.45
2023-08-17T19:14:07.741Z,37.40
2023-08-17T19:16:40.676Z,17.30
2023-08-17T19:21:46.271Z,14.83
2023-08-17T19:24:19.296Z,13.90
2023-08-17T19:26:53.694Z,17.58
2023-08-17T19:29:26.841Z,15.60
2023-08-17T19:31:59.970Z,17.95
2023-08-17T19:34:33.312Z,16.95
2023-08-17T19:37:06.590Z,19.27
2023-08-17T19:39:39.452Z,16.00
2023-08-17T19:42:13.761Z,16.40
2023-08-17T19:44:46.735Z,12.50
2023-08-17T19:49:54.251Z,23.85
2023-08-17T19:55:00.001Z,12.98
2023-08-17T20:00:10.031Z,11.10
2023-08-17T20:02:52.856Z,12.85
2023-08-17T20:05:25.891Z,18.15
2023-08-17T20:10:31.883Z,13.00
2023-08-17T20:13:06.398Z,13.07
2023-08-17T20:15:39.427Z,11.73
2023-08-17T20:23:24.568Z,14.27
2023-08-17T20:25:58.418Z,14.93
2023-08-17T20:28:32.755Z,17.15
2023-08-17T20:31:06.215Z,16.13
2023-08-17T20:33:40.278Z,28.85
2023-08-17T20:36:17.787Z,18.55
2023-08-17T20:38:53.037Z,16.98
2023-08-17T20:41:25.960Z,17.27
2023-08-17T20:44:00.247Z,16.20
2023-08-17T20:46:33.165Z,21.55
2023-08-17T20:51:40.153Z,12.60
2023-08-17T20:54:15.445Z,11.15
2023-08-17T20:56:48.329Z,14.50
2023-08-17T20:59:22.551Z,9.93
2023-08-17T21:01:55.479Z,14.40
2023-08-17T21:07:01.066Z,16.70
2023-08-17T21:09:34.020Z,11.35
2023-08-17T21:12:07.561Z,12.88
2023-08-17T21:17:14.556Z,10.65
2023-08-17T21:22:20.153Z,12.07
2023-08-17T21:27:26.038Z,15.43
2023-08-17T21:30:00.821Z,15.80
2023-08-17T21:32:33.716Z,16.85
2023-08-17T21:35:07.530Z,12.05
2023-08-17T21:37:41.538Z,10.23
2023-08-17T21:40:14.465Z,9.75
2023-08-17T21:45:21.608Z,12.20
2023-08-17T21:47:54.492Z,8.43
2023-08-17T21:50:27.416Z,10.45
2023-08-17T21:53:00.292Z,11.05
2023-08-17T21:55:33.180Z,10.15
2023-08-17T21:58:06.390Z,13.13
2023-08-17T22:00:42.734Z,8.27
2023-08-17T22:03:17.520Z,12.00
2023-08-17T22:05:50.634Z,9.82
2023-08-17T22:08:23.787Z,11.85
2023-08-17T22:10:56.722Z,11.75
2023-08-17T22:13:29.727Z,9.70
2023-08-17T22:18:36.747Z,9.75
2023-08-17T22:21:09.715Z,11.02
2023-08-17T22:26:15.271Z,8.75
2023-08-17T22:28:48.139Z,10.80
2023-08-17T22:31:22.455Z,13.80
2023-08-17T22:33:55.368Z,9.63
2023-08-17T22:36:28.766Z,13.25
2023-08-17T22:39:01.622Z,15.40
2023-08-17T22:41:34.551Z,11.63
2023-08-17T22:44:06.707Z,16.50
2023-08-17T22:46:40.994Z,15.18
2023-08-17T22:49:13.850Z,12.45
2023-08-17T22:51:47.072Z,13.77
2023-08-17T22:54:20.027Z,15.75
2023-08-17T22:56:53.653Z,12.02
2023-08-17T22:59:27.538Z,13.52
2023-08-17T23:02:02.024Z,12.45
2023-08-17T23:04:35.039Z,12.13
2023-08-17T23:07:07.932Z,8.07
2023-08-17T23:09:40.907Z,12.88
2023-08-17T23:12:14.725Z,13.93
2023-08-17T23:14:47.686Z,10.60
2023-08-17T23:17:21.882Z,11.73
2023-08-17T23:19:54.955Z,10.23
2023-08-17T23:25:04.087Z,9.27
2023-08-17T23:27:37.039Z,11.52
2023-08-17T23:32:45.662Z,8.88
2023-08-17T23:35:18.700Z,9.82
2023-08-17T23:40:24.291Z,8.68
2023-08-17T23:42:57.187Z,11.43
2023-08-17T23:45:30.111Z,9.68
2023-08-17T23:48:04.771Z,18.73
2023-08-17T23:50:37.983Z,9.57
2023-08-17T23:55:43.554Z,14.77
